createdAt,value
2018-06-25T00:01:03.138Z,88.80
2018-06-25T00:03:31.365Z,88.30
2018-06-25T00:05:59.572Z,88.30
2018-06-25T00:08:27.853Z,88.60
2018-06-25T00:10:56.057Z,88.60
2018-06-25T00:13:24.609Z,88.60
2018-06-25T00:15:52.819Z,89.00
2018-06-25T00:18:21.077Z,89.20
2018-06-25T00:20:49.274Z,89.00
2018-06-25T00:23:17.520Z,88.80
2018-06-25T00:25:45.744Z,89.10
2018-06-25T00:28:13.981Z,89.30
2018-06-25T00:30:42.208Z,89.50
2018-06-25T00:33:10.421Z,89.80
2018-06-25T00:35:38.645Z,89.80
2018-06-25T00:38:06.896Z,90.00
2018-06-25T00:40:35.141Z,89.50
2018-06-25T00:43:03.385Z,88.70
2018-06-25T00:45:31.595Z,88.80
2018-06-25T00:47:59.784Z,88.80
2018-06-25T00:50:28.000Z,88.70
2018-06-25T00:52:56.284Z,88.40
2018-06-25T00:55:24.500Z,87.90
2018-06-25T00:57:52.708Z,87.80
2018-06-25T01:00:20.917Z,87.60
2018-06-25T01:02:49.127Z,86.80
2018-06-25T01:05:17.352Z,85.70
2018-06-25T01:07:45.594Z,85.60
2018-06-25T01:10:13.812Z,86.40
2018-06-25T01:12:42.008Z,86.00
2018-06-25T01:15:10.218Z,86.40
2018-06-25T01:17:38.434Z,87.20
2018-06-25T01:20:06.689Z,87.50
2018-06-25T01:22:34.957Z,88.20
2018-06-25T01:25:03.180Z,88.50
2018-06-25T01:27:31.394Z,88.90
2018-06-25T01:29:59.997Z,88.70
2018-06-25T01:32:28.218Z,89.10
2018-06-25T01:34:56.473Z,88.80
2018-06-25T01:37:24.684Z,89.00
2018-06-25T01:39:52.973Z,88.10
2018-06-25T01:42:21.217Z,88.20
2018-06-25T01:44:49.401Z,88.40
2018-06-25T01:48:20.861Z,88.00
2018-06-25T01:50:49.100Z,87.40
2018-06-25T01:53:17.308Z,87.10
2018-06-25T01:55:45.521Z,87.40
2018-06-25T01:58:13.798Z,86.60
2018-06-25T02:00:42.019Z,86.50
2018-06-25T02:03:10.223Z,85.90
2018-06-25T02:05:38.444Z,86.20
2018-06-25T02:08:06.673Z,85.30
2018-06-25T02:10:34.890Z,84.90
2018-06-25T02:13:03.441Z,84.50
2018-06-25T02:15:31.682Z,84.80
2018-06-25T02:17:59.897Z,84.80
2018-06-25T02:20:28.106Z,85.00
2018-06-25T02:22:56.383Z,85.20
2018-06-25T02:25:24.604Z,85.40
2018-06-25T02:27:52.807Z,85.90
2018-06-25T02:30:21.037Z,86.30
2018-06-25T02:32:49.261Z,86.90
2018-06-25T02:35:17.481Z,88.30
2018-06-25T02:37:45.691Z,89.90
2018-06-25T02:40:13.913Z,90.60
2018-06-25T02:42:42.137Z,91.10
2018-06-25T02:45:10.364Z,91.10
2018-06-25T02:47:38.593Z,91.20
2018-06-25T02:50:07.442Z,91.70
2018-06-25T02:52:35.660Z,92.30
2018-06-25T02:55:03.889Z,92.40
2018-06-25T02:57:32.088Z,92.80
2018-06-25T03:00:00.319Z,93.10
2018-06-25T03:02:28.520Z,93.40
2018-06-25T03:04:56.737Z,93.60
2018-06-25T03:07:24.937Z,93.80
2018-06-25T03:09:53.211Z,93.90
2018-06-25T03:12:27.625Z,93.90
2018-06-25T03:14:55.864Z,94.10
2018-06-25T03:17:24.078Z,94.40
2018-06-25T03:19:52.361Z,94.30
2018-06-25T03:22:20.553Z,94.40
2018-06-25T03:24:48.764Z,94.50
2018-06-25T03:27:16.972Z,94.90
2018-06-25T03:29:45.276Z,95.00
2018-06-25T03:32:13.480Z,95.00
2018-06-25T03:34:41.764Z,95.10
2018-06-25T03:37:09.973Z,95.20
2018-06-25T03:42:06.189Z,94.90
2018-06-25T03:44:34.365Z,95.10
2018-06-25T03:47:02.566Z,95.10
2018-06-25T03:49:30.764Z,94.90
2018-06-25T03:51:59.049Z,95.00
2018-06-25T03:54:27.241Z,95.00
2018-06-25T03:56:55.451Z,95.00
2018-06-25T03:59:23.653Z,94.80
2018-06-25T04:01:52.196Z,94.90
2018-06-25T04:06:52.921Z,94.90
2018-06-25T04:09:21.372Z,94.40
2018-06-25T04:11:49.586Z,94.30
2018-06-25T04:14:18.119Z,94.20
2018-06-25T04:16:46.304Z,94.20
2018-06-25T04:19:14.491Z,94.30
2018-06-25T04:21:42.720Z,94.40
2018-06-25T04:24:10.921Z,94.40
2018-06-25T04:26:39.129Z,94.00
2018-06-25T04:29:07.761Z,93.60
2018-06-25T04:31:36.000Z,93.60
2018-06-25T04:34:16.357Z,93.20
2018-06-25T04:36:56.871Z,93.40
2018-06-25T04:39:25.140Z,93.30
2018-06-25T04:41:53.357Z,92.90
2018-06-25T04:44:21.556Z,92.50
2018-06-25T04:46:49.764Z,92.30
2018-06-25T04:49:17.961Z,92.20
2018-06-25T04:51:46.173Z,92.20
2018-06-25T04:54:14.385Z,92.10
2018-06-25T04:56:42.564Z,91.50
2018-06-25T04:59:10.756Z,91.50
2018-06-25T05:01:38.973Z,91.40
2018-06-25T05:04:07.168Z,91.30
2018-06-25T05:06:35.365Z,91.20
2018-06-25T05:09:05.489Z,90.90
2018-06-25T05:11:33.744Z,90.50
2018-06-25T05:14:02.001Z,90.40
2018-06-25T05:16:30.217Z,90.20
2018-06-25T05:18:58.424Z,90.40
2018-06-25T05:21:26.630Z,90.40
2018-06-25T05:23:54.842Z,90.50
2018-06-25T05:26:23.040Z,90.10
2018-06-25T05:28:51.261Z,89.50
2018-06-25T05:31:19.489Z,90.00
2018-06-25T05:33:47.726Z,89.10
2018-06-25T05:36:16.085Z,89.90
2018-06-25T05:38:44.304Z,90.30
2018-06-25T05:41:12.572Z,89.80
2018-06-25T05:43:40.918Z,89.60
2018-06-25T05:46:09.438Z,90.20
2018-06-25T05:48:37.651Z,90.10
2018-06-25T05:51:05.877Z,89.80
2018-06-25T05:53:34.097Z,89.50
2018-06-25T05:56:02.290Z,87.00
2018-06-25T05:58:30.484Z,87.20
2018-06-25T06:00:58.690Z,86.90
2018-06-25T06:03:26.999Z,87.70
2018-06-25T06:05:55.204Z,87.70
2018-06-25T06:08:23.409Z,87.30
2018-06-25T06:10:51.602Z,87.30
2018-06-25T06:13:19.813Z,87.00
2018-06-25T06:15:48.020Z,86.20
2018-06-25T06:18:16.223Z,86.50
2018-06-25T06:20:45.025Z,86.10
2018-06-25T06:23:13.304Z,86.20
2018-06-25T06:25:41.493Z,86.50
2018-06-25T06:28:09.681Z,84.10
2018-06-25T06:30:37.911Z,84.20
2018-06-25T06:33:06.123Z,84.40
2018-06-25T06:35:34.332Z,82.70
2018-06-25T06:38:02.498Z,80.80
2018-06-25T06:40:30.728Z,80.60
2018-06-25T06:42:58.970Z,81.10
2018-06-25T06:45:28.299Z,81.60
2018-06-25T06:47:56.846Z,80.00
2018-06-25T06:50:25.024Z,79.40
2018-06-25T06:52:53.360Z,78.40
2018-06-25T06:55:21.578Z,79.90
2018-06-25T06:57:49.875Z,80.30
2018-06-25T07:00:18.014Z,80.50
2018-06-25T07:02:46.224Z,79.00
2018-06-25T07:05:14.420Z,80.80
2018-06-25T07:07:42.643Z,81.20
2018-06-25T07:10:10.849Z,80.50
2018-06-25T07:12:39.034Z,80.80
2018-06-25T07:15:07.244Z,79.40
2018-06-25T07:17:35.446Z,79.10
2018-06-25T07:20:03.665Z,79.10
2018-06-25T07:22:31.870Z,78.70
2018-06-25T07:25:00.063Z,80.60
2018-06-25T07:27:28.252Z,79.10
2018-06-25T07:29:56.460Z,78.70
2018-06-25T07:32:24.702Z,79.70
2018-06-25T07:34:52.930Z,78.70
2018-06-25T07:37:21.136Z,76.50
2018-06-25T07:39:49.334Z,74.80
2018-06-25T07:42:17.621Z,74.30
2018-06-25T07:44:45.827Z,76.00
2018-06-25T07:47:14.069Z,75.80
2018-06-25T07:49:42.230Z,75.30
2018-06-25T07:52:10.458Z,75.80
2018-06-25T07:54:38.640Z,76.10
2018-06-25T07:57:06.868Z,74.50
2018-06-25T07:59:35.116Z,74.00
2018-06-25T08:02:03.665Z,73.00
2018-06-25T08:04:31.872Z,71.80
2018-06-25T08:07:00.093Z,70.90
2018-06-25T08:09:28.305Z,71.70
2018-06-25T08:11:56.484Z,70.30
2018-06-25T08:14:24.724Z,71.20
2018-06-25T08:16:53.011Z,68.60
2018-06-25T08:19:21.218Z,67.80
2018-06-25T08:21:49.415Z,69.10
2018-06-25T08:26:45.545Z,67.70
2018-06-25T08:29:13.763Z,66.60
2018-06-25T08:31:41.979Z,67.20
2018-06-25T08:34:10.224Z,66.70
2018-06-25T08:36:38.387Z,66.90
2018-06-25T08:39:08.688Z,67.80
2018-06-25T08:41:36.954Z,67.20
2018-06-25T08:44:05.516Z,68.50
2018-06-25T08:46:33.738Z,68.40
2018-06-25T08:49:01.946Z,67.60
2018-06-25T08:51:30.225Z,66.30
2018-06-25T08:53:58.525Z,66.50
2018-06-25T08:56:26.714Z,66.00
2018-06-25T08:58:54.935Z,65.50
2018-06-25T09:01:23.119Z,64.70
2018-06-25T09:03:51.369Z,65.30
2018-06-25T09:06:19.562Z,65.00
2018-06-25T09:08:47.781Z,61.90
2018-06-25T09:11:15.993Z,64.00
2018-06-25T09:13:44.197Z,65.20
2018-06-25T09:16:12.409Z,66.10
2018-06-25T09:18:40.605Z,64.10
2018-06-25T09:21:08.804Z,63.60
2018-06-25T09:23:37.014Z,64.10
2018-06-25T09:26:05.574Z,64.60
2018-06-25T09:28:33.799Z,65.30
2018-06-25T09:31:01.992Z,64.40
2018-06-25T09:33:30.185Z,62.90
2018-06-25T09:35:58.387Z,63.20
2018-06-25T09:38:26.593Z,63.20
2018-06-25T09:40:54.879Z,62.80
2018-06-25T09:43:23.021Z,63.40
2018-06-25T09:45:51.212Z,62.50
2018-06-25T09:48:19.414Z,62.30
2018-06-25T09:50:47.596Z,62.50
2018-06-25T09:53:15.796Z,62.30
2018-06-25T09:55:43.977Z,59.40
2018-06-25T09:58:12.172Z,59.10
2018-06-25T10:00:45.875Z,59.10
2018-06-25T10:03:14.077Z,58.70
2018-06-25T10:05:42.290Z,58.90
2018-06-25T10:08:10.495Z,59.80
2018-06-25T10:10:38.755Z,60.00
2018-06-25T10:13:07.473Z,60.80
2018-06-25T10:15:35.670Z,60.50
2018-06-25T10:18:03.885Z,60.80
2018-06-25T10:20:32.101Z,59.30
2018-06-25T10:23:00.289Z,59.70
2018-06-25T10:25:28.498Z,59.10
2018-06-25T10:27:56.694Z,59.80
2018-06-25T10:30:24.978Z,60.90
2018-06-25T10:32:53.174Z,60.80
2018-06-25T10:35:21.390Z,60.00
2018-06-25T10:37:49.594Z,60.00
2018-06-25T10:40:17.781Z,59.50
2018-06-25T10:42:46.017Z,59.90
2018-06-25T10:45:14.219Z,59.90
2018-06-25T10:47:42.439Z,59.60
2018-06-25T10:50:10.620Z,57.60
2018-06-25T10:52:38.826Z,58.10
2018-06-25T10:55:07.218Z,57.20
2018-06-25T10:57:35.405Z,57.10
2018-06-25T11:00:04.308Z,56.60
2018-06-25T11:02:32.193Z,56.60
2018-06-25T11:05:00.415Z,55.50
2018-06-25T11:07:28.768Z,55.80
2018-06-25T11:09:56.853Z,55.60
2018-06-25T11:12:25.037Z,54.80
2018-06-25T11:14:53.267Z,54.80
2018-06-25T11:19:49.461Z,52.90
2018-06-25T11:22:17.665Z,52.30
2018-06-25T11:24:46.049Z,53.90
2018-06-25T11:27:14.311Z,55.30
2018-06-25T11:29:42.489Z,56.00
2018-06-25T11:32:10.675Z,56.10
2018-06-25T11:34:38.915Z,55.00
2018-06-25T11:37:07.110Z,54.50
2018-06-25T11:39:35.301Z,53.60
2018-06-25T11:42:03.508Z,53.60
2018-06-25T11:44:31.708Z,53.40
2018-06-25T11:46:59.893Z,52.10
2018-06-25T11:49:28.092Z,51.80
2018-06-25T11:51:56.303Z,52.20
2018-06-25T11:54:24.488Z,53.30
2018-06-25T11:56:52.679Z,52.50
2018-06-25T11:59:20.869Z,52.80
2018-06-25T12:01:49.109Z,53.00
2018-06-25T12:04:17.236Z,52.10
2018-06-25T12:06:45.423Z,52.20
2018-06-25T12:09:13.625Z,49.30
2018-06-25T12:11:41.817Z,49.60
2018-06-25T12:14:10.062Z,49.90
2018-06-25T12:16:38.208Z,47.80
2018-06-25T12:19:06.495Z,49.10
2018-06-25T12:21:34.729Z,49.00
2018-06-25T12:24:02.944Z,48.70
2018-06-25T12:26:31.193Z,48.40
2018-06-25T12:28:59.420Z,47.50
2018-06-25T12:31:27.637Z,46.10
2018-06-25T12:33:56.043Z,45.60
2018-06-25T12:36:24.268Z,46.70
2018-06-25T12:38:52.451Z,45.60
2018-06-25T12:41:20.669Z,45.90
2018-06-25T12:43:48.880Z,44.50
2018-06-25T12:46:17.081Z,45.30
2018-06-25T12:51:13.248Z,43.80
2018-06-25T12:53:41.448Z,44.70
2018-06-25T12:56:09.667Z,44.70
2018-06-25T12:58:37.905Z,44.30
2018-06-25T13:01:06.131Z,43.80
2018-06-25T13:03:34.323Z,42.80
2018-06-25T13:06:02.596Z,42.60
2018-06-25T13:08:30.796Z,44.40
2018-06-25T13:10:59.325Z,44.20
2018-06-25T13:13:27.546Z,43.00
2018-06-25T13:15:55.756Z,43.40
2018-06-25T13:18:24.142Z,43.10
2018-06-25T13:20:52.325Z,43.30
2018-06-25T13:23:20.525Z,43.60
2018-06-25T13:25:48.750Z,43.60
2018-06-25T13:28:16.912Z,44.20
2018-06-25T13:30:45.143Z,44.70
2018-06-25T13:33:13.324Z,44.10
2018-06-25T13:35:41.588Z,45.20
2018-06-25T13:38:09.965Z,44.40
2018-06-25T13:40:38.157Z,44.70
2018-06-25T13:43:06.380Z,45.80
2018-06-25T13:45:34.728Z,45.90
2018-06-25T13:48:03.242Z,46.30
2018-06-25T13:50:31.442Z,45.50
2018-06-25T13:52:59.630Z,45.30
2018-06-25T13:55:27.889Z,45.90
2018-06-25T13:57:56.101Z,45.40
2018-06-25T14:00:24.414Z,44.00
2018-06-25T14:02:52.635Z,43.70
2018-06-25T14:05:20.837Z,42.80
2018-06-25T14:07:49.044Z,42.50
2018-06-25T14:10:17.292Z,43.90
2018-06-25T14:12:45.528Z,43.80
2018-06-25T14:15:13.756Z,43.50
2018-06-25T14:17:41.960Z,43.60
2018-06-25T14:20:10.468Z,43.60
2018-06-25T14:22:38.689Z,44.50
2018-06-25T14:25:06.885Z,44.70
2018-06-25T14:27:40.492Z,44.50
2018-06-25T14:30:14.148Z,44.60
2018-06-25T14:32:42.342Z,43.30
2018-06-25T14:35:16.214Z,43.30
2018-06-25T14:37:45.093Z,42.70
2018-06-25T14:40:13.387Z,42.30
2018-06-25T14:42:41.557Z,41.20
2018-06-25T14:45:10.170Z,41.10
2018-06-25T14:47:38.312Z,41.40
2018-06-25T14:50:06.520Z,41.40
2018-06-25T14:52:34.794Z,41.60
2018-06-25T14:55:02.969Z,40.40
2018-06-25T14:57:31.182Z,40.20
2018-06-25T14:59:59.773Z,40.00
2018-06-25T15:02:27.954Z,39.60
2018-06-25T15:04:56.187Z,40.00
2018-06-25T15:07:24.434Z,39.70
2018-06-25T15:09:52.740Z,39.80
2018-06-25T15:12:20.961Z,39.20
2018-06-25T15:14:49.178Z,39.90
2018-06-25T15:17:17.412Z,38.70
2018-06-25T15:19:45.615Z,38.80
2018-06-25T15:22:13.954Z,38.70
2018-06-25T15:24:42.234Z,35.70
2018-06-25T15:27:10.435Z,34.00
2018-06-25T15:29:38.622Z,32.10
2018-06-25T15:32:06.842Z,29.80
2018-06-25T15:34:35.107Z,28.00
2018-06-25T15:37:03.342Z,26.60
2018-06-25T15:39:31.564Z,25.40
2018-06-25T15:41:59.763Z,24.70
2018-06-25T15:46:55.964Z,23.30
2018-06-25T15:49:24.178Z,22.70
2018-06-25T15:51:52.392Z,22.30
2018-06-25T15:54:20.585Z,21.60
2018-06-25T15:56:48.801Z,21.40
2018-06-25T16:01:44.984Z,22.70
2018-06-25T16:04:13.164Z,23.60
2018-06-25T16:06:41.412Z,24.20
2018-06-25T16:09:09.580Z,25.60
2018-06-25T16:11:37.843Z,27.10
2018-06-25T16:14:06.022Z,28.30
2018-06-25T16:19:02.297Z,30.20
2018-06-25T16:21:30.476Z,30.50
2018-06-25T16:23:58.677Z,31.50
2018-06-25T16:26:26.852Z,33.00
2018-06-25T16:28:55.036Z,33.50
2018-06-25T16:31:23.211Z,33.50
2018-06-25T16:33:51.709Z,34.70
2018-06-25T16:36:19.911Z,34.50
2018-06-25T16:38:48.201Z,34.30
2018-06-25T16:41:16.419Z,34.50
2018-06-25T16:43:44.640Z,34.30
2018-06-25T16:46:12.847Z,35.30
2018-06-25T16:48:41.360Z,36.60
2018-06-25T16:51:09.568Z,37.10
2018-06-25T16:53:37.844Z,36.70
2018-06-25T16:56:06.232Z,36.80
2018-06-25T16:58:34.446Z,36.60
2018-06-25T17:01:02.632Z,37.00
2018-06-25T17:03:30.838Z,36.50
2018-06-25T17:05:59.169Z,37.30
2018-06-25T17:08:27.360Z,37.80
2018-06-25T17:10:55.605Z,38.50
2018-06-25T17:13:23.813Z,39.50
2018-06-25T17:15:52.054Z,39.30
2018-06-25T17:18:20.283Z,40.20
2018-06-25T17:20:48.487Z,40.90
2018-06-25T17:23:16.682Z,42.10
2018-06-25T17:25:44.855Z,42.40
2018-06-25T17:28:13.087Z,43.60
2018-06-25T17:30:41.287Z,43.80
2018-06-25T17:33:09.605Z,44.40
2018-06-25T17:35:37.921Z,44.70
2018-06-25T17:38:06.232Z,45.30
2018-06-25T17:40:35.242Z,45.10
2018-06-25T17:43:04.223Z,45.30
2018-06-25T17:45:33.485Z,45.00
2018-06-25T17:48:02.580Z,45.80
2018-06-25T17:50:31.783Z,46.40
2018-06-25T17:53:00.922Z,46.70
2018-06-25T17:55:30.088Z,46.60
2018-06-25T17:57:59.250Z,46.90
2018-06-25T18:00:28.254Z,47.70
2018-06-25T18:02:57.354Z,47.40
2018-06-25T18:05:26.363Z,47.60
2018-06-25T18:07:55.442Z,47.80
2018-06-25T18:10:24.530Z,49.30
2018-06-25T18:12:53.649Z,49.70
2018-06-25T18:15:22.689Z,49.70
2018-06-25T18:17:50.921Z,50.10
2018-06-25T18:20:19.106Z,50.80
2018-06-25T18:22:47.292Z,51.30
2018-06-25T18:25:15.854Z,51.90
2018-06-25T18:27:44.453Z,52.40
2018-06-25T18:30:12.894Z,52.50
2018-06-25T18:32:41.067Z,52.60
2018-06-25T18:35:09.466Z,52.60
2018-06-25T18:40:06.016Z,51.70
2018-06-25T18:45:02.367Z,51.70
2018-06-25T18:47:30.548Z,51.30
2018-06-25T18:49:59.080Z,51.40
2018-06-25T18:52:27.276Z,51.30
2018-06-25T18:54:55.607Z,51.30
2018-06-25T18:57:24.812Z,51.80
2018-06-25T18:59:53.014Z,52.40
2018-06-25T19:02:21.522Z,53.30
2018-06-25T19:04:49.792Z,53.20
2018-06-25T19:07:17.968Z,53.50
2018-06-25T19:09:46.171Z,53.70
2018-06-25T19:12:14.464Z,54.10
2018-06-25T19:14:42.778Z,54.40
2018-06-25T19:19:38.920Z,55.60
2018-06-25T19:22:07.136Z,55.50
2018-06-25T19:24:35.405Z,56.60
2018-06-25T19:27:03.931Z,56.80
2018-06-25T19:29:32.184Z,57.30
2018-06-25T19:32:00.683Z,57.60
2018-06-25T19:34:28.913Z,58.00
2018-06-25T19:36:57.134Z,58.40
2018-06-25T19:39:25.530Z,58.70
2018-06-25T19:41:54.480Z,59.40
2018-06-25T19:44:22.723Z,59.90
2018-06-25T19:46:51.128Z,60.20
2018-06-25T19:51:49.246Z,61.40
2018-06-25T19:54:17.436Z,61.60
2018-06-25T19:56:45.631Z,61.90
2018-06-25T19:59:13.821Z,62.60
2018-06-25T20:01:42.289Z,62.90
2018-06-25T20:04:10.507Z,63.70
2018-06-25T20:06:38.745Z,64.30
2018-06-25T20:09:09.032Z,64.70
2018-06-25T20:11:37.242Z,64.50
2018-06-25T20:14:05.790Z,65.00
2018-06-25T20:16:34.197Z,65.80
2018-06-25T20:19:02.813Z,66.00
2018-06-25T20:21:31.312Z,66.20
2018-06-25T20:23:59.506Z,66.90
2018-06-25T20:26:27.739Z,67.30
2018-06-25T20:28:55.923Z,67.20
2018-06-25T20:31:24.124Z,67.30
2018-06-25T20:33:52.319Z,67.40
2018-06-25T20:36:20.689Z,67.40
2018-06-25T20:38:48.701Z,67.60
2018-06-25T20:41:16.884Z,68.10
2018-06-25T20:43:45.068Z,68.60
2018-06-25T20:46:13.296Z,69.00
2018-06-25T20:48:41.497Z,69.70
2018-06-25T20:51:09.715Z,69.70
2018-06-25T20:53:37.897Z,69.90
2018-06-25T20:56:06.968Z,70.50
2018-06-25T20:58:35.151Z,70.90
2018-06-25T21:01:03.384Z,71.30
2018-06-25T21:03:31.898Z,72.10
2018-06-25T21:06:00.165Z,72.80
2018-06-25T21:08:28.383Z,73.10
2018-06-25T21:10:56.605Z,73.40
2018-06-25T21:13:24.800Z,73.90
2018-06-25T21:15:53.001Z,74.50
2018-06-25T21:18:21.206Z,75.10
2018-06-25T21:20:49.439Z,75.60
2018-06-25T21:23:18.278Z,75.80
2018-06-25T21:25:46.551Z,75.80
2018-06-25T21:28:14.752Z,76.30
2018-06-25T21:30:42.973Z,76.80
2018-06-25T21:33:11.160Z,77.20
2018-06-25T21:35:39.452Z,77.70
2018-06-25T21:38:07.602Z,78.20
2018-06-25T21:40:35.812Z,78.30
2018-06-25T21:43:04.014Z,78.70
2018-06-25T21:45:32.233Z,79.60
2018-06-25T21:48:00.444Z,80.00
2018-06-25T21:50:28.649Z,80.00
2018-06-25T21:52:56.846Z,80.30
2018-06-25T21:55:25.029Z,80.50
2018-06-25T21:57:53.229Z,80.90
2018-06-25T22:00:21.436Z,81.20
2018-06-25T22:02:49.803Z,81.50
2018-06-25T22:05:18.005Z,81.80
2018-06-25T22:07:46.289Z,82.20
2018-06-25T22:10:14.396Z,82.40
2018-06-25T22:12:42.594Z,83.00
2018-06-25T22:15:10.809Z,83.10
2018-06-25T22:17:39.030Z,83.20
2018-06-25T22:20:07.257Z,83.60
2018-06-25T22:22:35.457Z,84.00
2018-06-25T22:25:03.668Z,84.60
2018-06-25T22:27:31.928Z,85.00
2018-06-25T22:30:00.091Z,85.00
2018-06-25T22:32:28.293Z,85.20
2018-06-25T22:34:56.473Z,86.00
2018-06-25T22:37:24.775Z,86.10
2018-06-25T22:39:52.960Z,86.60
2018-06-25T22:42:21.178Z,86.90
2018-06-25T22:44:49.364Z,86.90
2018-06-25T22:47:17.568Z,88.00
2018-06-25T22:49:45.758Z,88.20
2018-06-25T22:52:14.365Z,88.30
2018-06-25T22:54:42.541Z,88.50
2018-06-25T22:57:10.740Z,88.90
2018-06-25T22:59:38.915Z,89.10
2018-06-25T23:02:07.149Z,89.20
2018-06-25T23:04:35.373Z,89.60
2018-06-25T23:07:03.579Z,90.00
2018-06-25T23:09:32.135Z,89.80
2018-06-25T23:12:00.342Z,90.00
2018-06-25T23:14:28.529Z,90.00
2018-06-25T23:16:56.731Z,90.00
2018-06-25T23:19:24.907Z,90.00
2018-06-25T23:21:53.163Z,90.00
2018-06-25T23:24:21.392Z,90.10
2018-06-25T23:26:49.578Z,90.20
2018-06-25T23:29:17.808Z,90.20
2018-06-25T23:31:45.988Z,90.50
2018-06-25T23:34:14.194Z,90.30
2018-06-25T23:36:42.475Z,90.20
2018-06-25T23:39:11.761Z,90.30
2018-06-25T23:41:40.344Z,90.50
2018-06-25T23:44:08.549Z,90.40
2018-06-25T23:46:36.764Z,90.40
2018-06-25T23:49:05.241Z,90.50
2018-06-25T23:51:33.480Z,90.60
2018-06-25T23:54:01.748Z,90.60
2018-06-25T23:56:29.983Z,90.60
2018-06-25T23:58:58.523Z,90.70
